首页
METAR-TAF:

METAR-TAF

机场 :

碧玉, 阿拉巴马州, 美国

纬度: 33-54-07N, 经度: 087-18-51W, 海拔: 147米

当前天气观测

该预报发布于10分钟前的17:55 UTC
静风
温度 37°C
湿度 40%
气压 1021 hPa
能見度: 14.5公里
少量云层高于100英尺

METAR: KJFX 081755Z AUTO 00000KT 9SM FEW001 37/21 A3014 RMK AO2 PWINO

时间: 13:05 (18:05 UTC)


TAF: 丢失

超过4000个机场的气象观测和天气预报(METAR&TAF报告)。

可查询的气象台以黄色和红色小点在地图上表示。

将鼠标移到小点上方,可查看气象台名称。

然后点击查看天气观测和预报。

如需切换地图:点击带黑十字的绿色按钮放大地图;点击带横线的绿色按钮缩小地图;或者点击绿色箭头查看邻近地区的地图。


METAR-TAF: